Stavelot, Belgium
Current Conditions -  °F | °C
As of 12:25 AM on Sunday 23 Nov 2014 (Local Time) from EBLB Reporting Station
Overcast Overcast  
Wind Chill: 46°   Ceiling: 16000
Heat Index: 48°   Visibility: 6mi
Dew Point: 46°   Wind: 6mph
Humidity: 93%   Direction: 210°SSW
Pressure: 30.09"   Gusts: NA
Location:  50.4°N, 5.93°E
Report Text: EBLB 222325Z AUTO 21005KT 9999 OVC160/// 09/08 Q1019 BLU
Loading
Personal Weather Stations






























Interactive Weather Map New forecast layout! Learn more

10-Day Weather Forecast

Advertisements
Track Severe Weather on mobile